createdAt,value
2019-05-16T00:00:02.209Z,9.31
2019-05-16T00:00:35.941Z,9.31
2019-05-16T00:01:09.508Z,9.31
2019-05-16T00:01:42.603Z,9.31
2019-05-16T00:02:15.675Z,9.31
2019-05-16T00:02:48.847Z,9.31
2019-05-16T00:03:21.725Z,9.31
2019-05-16T00:03:54.685Z,9.31
2019-05-16T00:04:28.398Z,9.31
2019-05-16T00:05:01.685Z,9.31
2019-05-16T00:05:46.817Z,9.31
2019-05-16T00:06:09.742Z,9.31
2019-05-16T00:06:42.636Z,9.31
2019-05-16T00:07:15.635Z,9.25
2019-05-16T00:07:49.866Z,9.25
2019-05-16T00:08:22.918Z,9.25
2019-05-16T00:08:55.715Z,9.25
2019-05-16T00:09:28.854Z,9.19
2019-05-16T00:10:01.869Z,9.19
2019-05-16T00:10:35.085Z,9.19
2019-05-16T00:11:08.619Z,9.19
2019-05-16T00:11:41.833Z,9.13
2019-05-16T00:12:14.848Z,9.13
2019-05-16T00:12:48.585Z,9.13
2019-05-16T00:13:21.800Z,9.13
2019-05-16T00:13:57.813Z,9.13
2019-05-16T00:14:30.609Z,9.06
2019-05-16T00:15:04.077Z,9.06
2019-05-16T00:15:37.988Z,9.06
2019-05-16T00:16:10.951Z,9.00
2019-05-16T00:16:43.771Z,9.00
2019-05-16T00:17:18.873Z,9.00
2019-05-16T00:17:51.871Z,9.00
2019-05-16T00:18:24.969Z,9.00
2019-05-16T00:18:58.320Z,9.00
2019-05-16T00:19:31.425Z,9.00
2019-05-16T00:20:04.687Z,9.00
2019-05-16T00:20:38.635Z,9.00
2019-05-16T00:21:11.791Z,9.00
2019-05-16T00:21:44.693Z,9.00
2019-05-16T00:22:18.219Z,9.00
2019-05-16T00:22:51.309Z,9.00
2019-05-16T00:23:24.201Z,9.00
2019-05-16T00:23:58.686Z,9.00
2019-05-16T00:24:31.673Z,9.00
2019-05-16T00:25:08.487Z,9.00
2019-05-16T00:25:41.240Z,9.00
2019-05-16T00:26:14.381Z,9.00
2019-05-16T00:26:47.960Z,9.00
2019-05-16T00:27:21.207Z,9.00
2019-05-16T00:27:54.139Z,9.00
2019-05-16T00:28:28.586Z,9.00
2019-05-16T00:29:01.792Z,9.00
2019-05-16T00:29:34.845Z,9.00
2019-05-16T00:30:08.850Z,9.00
2019-05-16T00:30:42.291Z,9.00
2019-05-16T00:31:15.296Z,9.00
2019-05-16T00:31:48.684Z,9.00
2019-05-16T00:32:22.767Z,9.00
2019-05-16T00:32:55.905Z,9.00
2019-05-16T00:33:28.992Z,9.00
2019-05-16T00:34:02.128Z,9.00
2019-05-16T00:34:35.130Z,9.00
2019-05-16T00:35:09.284Z,8.94
2019-05-16T00:35:42.607Z,8.94
2019-05-16T00:36:15.459Z,8.94
2019-05-16T00:36:48.797Z,8.94
2019-05-16T00:37:23.097Z,8.88
2019-05-16T00:37:58.739Z,8.94
2019-05-16T00:38:31.232Z,8.94
2019-05-16T00:39:04.982Z,8.94
2019-05-16T00:39:38.816Z,8.94
2019-05-16T00:40:12.245Z,8.94
2019-05-16T00:40:45.155Z,8.94
2019-05-16T00:41:18.221Z,8.94
2019-05-16T00:41:51.185Z,8.94
2019-05-16T00:42:24.083Z,8.88
2019-05-16T00:42:58.973Z,8.88
2019-05-16T00:43:31.943Z,8.88
2019-05-16T00:44:08.429Z,8.88
2019-05-16T00:44:41.331Z,8.88
2019-05-16T00:45:14.504Z,8.88
2019-05-16T00:45:48.649Z,8.88
2019-05-16T00:46:21.650Z,8.88
2019-05-16T00:46:54.553Z,8.88
2019-05-16T00:47:28.408Z,8.88
2019-05-16T00:48:01.566Z,8.88
2019-05-16T00:48:38.016Z,8.88
2019-05-16T00:49:10.687Z,8.88
2019-05-16T00:49:43.747Z,8.81
2019-05-16T00:50:18.340Z,8.81
2019-05-16T00:50:51.707Z,8.81
2019-05-16T00:51:24.737Z,8.81
2019-05-16T00:51:58.469Z,8.81
2019-05-16T00:52:31.541Z,8.81
2019-05-16T00:53:04.794Z,8.81
2019-05-16T00:53:38.218Z,8.81
2019-05-16T00:54:11.440Z,8.81
2019-05-16T00:54:44.347Z,8.81
2019-05-16T00:55:18.012Z,8.75
2019-05-16T00:55:51.292Z,8.75
2019-05-16T00:56:25.356Z,8.75
2019-05-16T00:56:59.160Z,8.75
2019-05-16T00:57:33.511Z,8.75
2019-05-16T00:58:08.829Z,8.75
2019-05-16T00:58:42.072Z,8.75
2019-05-16T00:59:15.540Z,8.69
2019-05-16T00:59:49.054Z,8.75
2019-05-16T01:00:49.337Z,8.69
2019-05-16T01:01:21.352Z,8.69
2019-05-16T01:01:54.222Z,8.69
2019-05-16T01:02:28.831Z,8.69
2019-05-16T01:03:03.396Z,8.63
2019-05-16T01:03:37.789Z,8.63
2019-05-16T01:04:10.799Z,8.63
2019-05-16T01:04:43.606Z,8.63
2019-05-16T01:05:18.935Z,8.63
2019-05-16T01:05:51.590Z,8.63
2019-05-16T01:06:24.635Z,8.63
2019-05-16T01:06:58.978Z,8.63
2019-05-16T01:07:32.557Z,8.63
2019-05-16T01:08:07.894Z,8.63
2019-05-16T01:08:40.922Z,8.63
2019-05-16T01:09:14.031Z,8.56
2019-05-16T01:09:48.808Z,8.56
2019-05-16T01:10:22.695Z,8.56
2019-05-16T01:10:55.797Z,8.56
2019-05-16T01:11:28.736Z,8.56
2019-05-16T01:12:02.013Z,8.56
2019-05-16T01:12:35.022Z,8.56
2019-05-16T01:13:08.226Z,8.56
2019-05-16T01:13:41.245Z,8.56
2019-05-16T01:14:14.267Z,8.56
2019-05-16T01:14:47.823Z,8.56
2019-05-16T01:15:21.013Z,8.56
2019-05-16T01:15:53.903Z,8.56
2019-05-16T01:16:27.664Z,8.56
2019-05-16T01:17:00.599Z,8.50
2019-05-16T01:17:33.603Z,8.50
2019-05-16T01:18:08.103Z,8.50
2019-05-16T01:18:42.241Z,8.50
2019-05-16T01:19:15.260Z,8.50
2019-05-16T01:19:48.509Z,8.50
2019-05-16T01:20:21.691Z,8.50
2019-05-16T01:20:54.685Z,8.50
2019-05-16T01:21:28.708Z,8.50
2019-05-16T01:22:02.133Z,8.50
2019-05-16T01:22:35.017Z,8.50
2019-05-16T01:23:08.928Z,8.50
2019-05-16T01:23:42.180Z,8.50
2019-05-16T01:24:15.228Z,8.44
2019-05-16T01:24:49.208Z,8.44
2019-05-16T01:25:22.439Z,8.44
2019-05-16T01:25:55.588Z,8.44
2019-05-16T01:26:28.701Z,8.44
2019-05-16T01:27:01.561Z,8.44
2019-05-16T01:27:34.497Z,8.44
2019-05-16T01:28:08.834Z,8.44
2019-05-16T01:28:42.286Z,8.44
2019-05-16T01:29:15.382Z,8.44
2019-05-16T01:29:48.437Z,8.44
2019-05-16T01:30:21.461Z,8.44
2019-05-16T01:30:54.677Z,8.44
2019-05-16T01:31:28.029Z,8.44
2019-05-16T01:32:01.402Z,8.44
2019-05-16T01:32:34.295Z,8.44
2019-05-16T01:33:08.847Z,8.44
2019-05-16T01:33:43.272Z,8.44
2019-05-16T01:34:18.114Z,8.44
2019-05-16T01:34:51.090Z,8.44
2019-05-16T01:35:24.039Z,8.44
2019-05-16T01:35:58.498Z,8.44
2019-05-16T01:36:37.001Z,8.44
2019-05-16T01:37:08.295Z,8.44
2019-05-16T01:37:41.393Z,8.38
2019-05-16T01:38:14.416Z,8.38
2019-05-16T01:38:48.062Z,8.38
2019-05-16T01:39:22.309Z,8.38
2019-05-16T01:39:55.352Z,8.31
2019-05-16T01:40:28.250Z,8.31
2019-05-16T01:41:01.246Z,8.31
2019-05-16T01:41:34.233Z,8.25
2019-05-16T01:42:07.976Z,8.25
2019-05-16T01:42:41.189Z,8.25
2019-05-16T01:43:14.241Z,8.25
2019-05-16T01:43:48.339Z,8.25
2019-05-16T01:44:21.505Z,8.25
2019-05-16T01:44:54.408Z,8.19
2019-05-16T01:45:28.191Z,8.19
2019-05-16T01:46:01.085Z,8.19
2019-05-16T01:46:34.457Z,8.19
2019-05-16T01:47:09.023Z,8.19
2019-05-16T01:47:42.144Z,8.13
2019-05-16T01:48:15.164Z,8.13
2019-05-16T01:48:48.625Z,8.13
2019-05-16T01:49:21.695Z,8.13
2019-05-16T01:49:54.720Z,8.13
2019-05-16T01:50:28.365Z,8.06
2019-05-16T01:51:01.594Z,8.06
2019-05-16T01:51:37.966Z,8.06
2019-05-16T01:52:11.130Z,8.06
2019-05-16T01:52:44.199Z,8.06
2019-05-16T01:53:17.935Z,8.06
2019-05-16T01:53:51.131Z,8.00
2019-05-16T01:54:24.071Z,8.00
2019-05-16T01:54:58.725Z,8.00
2019-05-16T01:55:31.772Z,8.00
2019-05-16T01:56:05.075Z,8.00
2019-05-16T01:56:38.780Z,7.94
2019-05-16T01:57:12.518Z,7.94
2019-05-16T01:57:45.495Z,7.94
2019-05-16T01:58:21.231Z,7.94
2019-05-16T01:58:54.272Z,7.94
2019-05-16T01:59:28.415Z,7.94
2019-05-16T02:00:01.642Z,7.94
2019-05-16T02:00:38.107Z,7.94
2019-05-16T02:01:13.311Z,7.94
2019-05-16T02:01:44.849Z,7.94
2019-05-16T02:02:18.415Z,7.94
2019-05-16T02:02:51.761Z,7.94
2019-05-16T02:03:24.918Z,7.94
2019-05-16T02:03:58.700Z,7.94
2019-05-16T02:04:31.681Z,7.94
2019-05-16T02:05:04.994Z,7.94
2019-05-16T02:05:38.765Z,7.94
2019-05-16T02:06:12.132Z,8.00
2019-05-16T02:06:51.706Z,8.00
2019-05-16T02:07:20.136Z,8.00
2019-05-16T02:07:53.220Z,8.00
2019-05-16T02:08:28.702Z,8.00
2019-05-16T02:09:02.033Z,8.00
2019-05-16T02:09:40.941Z,7.94
2019-05-16T02:10:17.904Z,7.94
2019-05-16T02:10:50.464Z,7.94
2019-05-16T02:11:23.437Z,7.94
2019-05-16T02:11:58.754Z,7.94
2019-05-16T02:12:31.241Z,7.94
2019-05-16T02:13:04.376Z,7.94
2019-05-16T02:13:39.057Z,7.94
2019-05-16T02:14:12.312Z,7.94
2019-05-16T02:14:45.282Z,7.94
2019-05-16T02:15:18.446Z,7.87
2019-05-16T02:15:52.621Z,7.87
2019-05-16T02:16:27.791Z,7.87
2019-05-16T02:17:00.468Z,7.87
2019-05-16T02:17:33.591Z,7.87
2019-05-16T02:18:08.272Z,7.87
2019-05-16T02:18:41.533Z,7.87
2019-05-16T02:19:14.553Z,7.87
2019-05-16T02:19:48.526Z,7.87
2019-05-16T02:20:24.620Z,7.87
2019-05-16T02:21:01.422Z,7.87
2019-05-16T02:21:34.072Z,7.87
2019-05-16T02:22:08.937Z,7.87
2019-05-16T02:22:41.816Z,7.87
2019-05-16T02:23:14.861Z,7.87
2019-05-16T02:23:51.339Z,7.87
2019-05-16T02:24:24.240Z,7.87
2019-05-16T02:24:58.514Z,7.87
2019-05-16T02:25:31.783Z,7.81
2019-05-16T02:26:04.872Z,7.81
2019-05-16T02:26:38.648Z,7.81
2019-05-16T02:27:11.701Z,7.81
2019-05-16T02:27:44.736Z,7.81
2019-05-16T02:28:21.084Z,7.75
2019-05-16T02:28:52.724Z,7.75
2019-05-16T02:29:25.749Z,7.75
2019-05-16T02:30:00.007Z,7.69
2019-05-16T02:30:33.335Z,7.69
2019-05-16T02:31:06.734Z,7.69
2019-05-16T02:31:42.197Z,7.62
2019-05-16T02:32:14.680Z,7.62
2019-05-16T02:32:47.559Z,7.62
2019-05-16T02:33:21.566Z,7.56
2019-05-16T02:33:54.860Z,7.56
2019-05-16T02:34:30.630Z,7.56
2019-05-16T02:35:03.523Z,7.56
2019-05-16T02:35:36.590Z,7.50
2019-05-16T02:36:11.003Z,7.50
2019-05-16T02:36:44.208Z,7.50
2019-05-16T02:37:25.923Z,7.50
2019-05-16T02:37:55.188Z,7.44
2019-05-16T02:38:26.959Z,7.44
2019-05-16T02:39:01.982Z,7.44
2019-05-16T02:39:36.595Z,7.44
2019-05-16T02:40:11.903Z,7.44
2019-05-16T02:40:45.192Z,7.44
2019-05-16T02:41:21.305Z,7.44
2019-05-16T02:41:53.220Z,7.44
2019-05-16T02:42:30.696Z,7.44
2019-05-16T02:43:02.350Z,7.44
2019-05-16T02:43:36.878Z,7.44
2019-05-16T02:44:12.097Z,7.44
2019-05-16T02:44:44.877Z,7.44
2019-05-16T02:45:23.897Z,7.44
2019-05-16T02:45:53.120Z,7.44
2019-05-16T02:46:26.076Z,7.37
2019-05-16T02:47:01.530Z,7.37
2019-05-16T02:47:35.168Z,7.37
2019-05-16T02:48:10.985Z,7.37
2019-05-16T02:48:43.306Z,7.37
2019-05-16T02:49:16.288Z,7.37
2019-05-16T02:49:50.522Z,7.37
2019-05-16T02:50:23.945Z,7.31
2019-05-16T02:50:56.964Z,7.37
2019-05-16T02:51:31.488Z,7.37
2019-05-16T02:52:04.886Z,7.31
2019-05-16T02:52:41.013Z,7.31
2019-05-16T02:53:13.003Z,7.37
2019-05-16T02:53:46.144Z,7.37
2019-05-16T02:54:21.857Z,7.31
2019-05-16T02:54:54.068Z,7.31
2019-05-16T02:55:27.073Z,7.31
2019-05-16T02:56:01.590Z,7.31
2019-05-16T02:56:34.843Z,7.31
2019-05-16T02:57:10.882Z,7.31
2019-05-16T02:57:43.114Z,7.31
2019-05-16T02:58:16.076Z,7.25
2019-05-16T02:58:52.050Z,7.25
2019-05-16T02:59:24.039Z,7.25
2019-05-16T02:59:57.237Z,7.25
2019-05-16T03:00:42.042Z,7.25
2019-05-16T03:01:13.562Z,7.25
2019-05-16T03:01:47.170Z,7.25
2019-05-16T03:02:20.730Z,7.25
2019-05-16T03:02:53.835Z,7.25
2019-05-16T03:03:26.904Z,7.25
2019-05-16T03:04:01.699Z,7.19
2019-05-16T03:04:34.887Z,7.19
2019-05-16T03:05:11.544Z,7.19
2019-05-16T03:05:44.198Z,7.19
2019-05-16T03:06:20.919Z,7.19
2019-05-16T03:06:53.646Z,7.19
2019-05-16T03:07:37.856Z,7.19
2019-05-16T03:08:03.012Z,7.19
2019-05-16T03:08:37.142Z,7.12
2019-05-16T03:09:11.505Z,7.12
2019-05-16T03:09:45.352Z,7.12
2019-05-16T03:10:20.323Z,7.12
2019-05-16T03:10:54.383Z,7.12
2019-05-16T03:11:27.658Z,7.06
2019-05-16T03:12:01.774Z,7.06
2019-05-16T03:12:37.510Z,7.06
2019-05-16T03:13:11.290Z,7.00
2019-05-16T03:13:46.894Z,7.00
2019-05-16T03:14:21.209Z,7.00
2019-05-16T03:14:57.042Z,7.00
2019-05-16T03:15:31.640Z,7.00
2019-05-16T03:16:11.715Z,7.00
2019-05-16T03:16:45.720Z,6.94
2019-05-16T03:17:22.027Z,6.94
2019-05-16T03:18:00.307Z,6.94
2019-05-16T03:18:33.924Z,6.87
2019-05-16T03:19:11.153Z,6.87
2019-05-16T03:19:43.414Z,6.87
2019-05-16T03:20:16.460Z,6.87
2019-05-16T03:20:51.227Z,6.87
2019-05-16T03:21:25.059Z,6.81
2019-05-16T03:22:01.219Z,6.81
2019-05-16T03:22:35.530Z,6.81
2019-05-16T03:23:11.262Z,6.81
2019-05-16T03:23:43.394Z,6.75
2019-05-16T03:24:16.314Z,6.75
2019-05-16T03:24:51.554Z,6.75
2019-05-16T03:25:24.522Z,6.75
2019-05-16T03:25:57.560Z,6.75
2019-05-16T03:26:31.424Z,6.75
2019-05-16T03:27:04.757Z,6.69
2019-05-16T03:27:41.009Z,6.69
2019-05-16T03:28:12.859Z,6.69
2019-05-16T03:28:45.761Z,6.69
2019-05-16T03:29:21.598Z,6.69
2019-05-16T03:29:53.530Z,6.69
2019-05-16T03:30:26.513Z,6.69
2019-05-16T03:31:05.132Z,6.62
2019-05-16T03:31:34.701Z,6.62
2019-05-16T03:32:13.268Z,6.62
2019-05-16T03:32:45.264Z,6.62
2019-05-16T03:33:26.309Z,6.62
2019-05-16T03:33:59.297Z,6.62
2019-05-16T03:34:33.819Z,6.62
2019-05-16T03:35:05.951Z,6.62
2019-05-16T03:35:43.954Z,6.56
2019-05-16T03:36:15.992Z,6.62
2019-05-16T03:36:54.306Z,6.56
2019-05-16T03:37:25.184Z,6.56
2019-05-16T03:38:04.211Z,6.56
2019-05-16T03:38:34.508Z,6.56
2019-05-16T03:39:10.723Z,6.56
2019-05-16T03:39:43.930Z,6.56
2019-05-16T03:40:24.716Z,6.56
2019-05-16T03:41:00.789Z,6.56
2019-05-16T03:41:32.470Z,6.56
2019-05-16T03:42:05.503Z,6.56
2019-05-16T03:42:41.349Z,6.56
2019-05-16T03:43:13.690Z,6.56
2019-05-16T03:43:50.680Z,6.56
2019-05-16T03:44:23.399Z,6.56
2019-05-16T03:44:56.192Z,6.56
2019-05-16T03:45:31.976Z,6.50
2019-05-16T03:46:04.038Z,6.50
2019-05-16T03:46:41.066Z,6.50
2019-05-16T03:47:12.891Z,6.50
2019-05-16T03:47:45.940Z,6.50
2019-05-16T03:48:21.404Z,6.50
2019-05-16T03:48:53.878Z,6.50
2019-05-16T03:49:26.760Z,6.50
2019-05-16T03:50:00.577Z,6.50
2019-05-16T03:50:33.833Z,6.50
2019-05-16T03:51:06.771Z,6.50
2019-05-16T03:51:41.402Z,6.50
2019-05-16T03:52:15.702Z,6.50
2019-05-16T03:52:50.885Z,6.50
2019-05-16T03:53:23.549Z,6.56
2019-05-16T03:53:57.526Z,6.56
2019-05-16T03:54:31.443Z,6.56
2019-05-16T03:55:05.203Z,6.56
2019-05-16T03:55:40.734Z,6.56
2019-05-16T03:56:14.654Z,6.56
2019-05-16T03:56:47.632Z,6.56
2019-05-16T03:57:21.241Z,6.56
2019-05-16T03:57:54.407Z,6.56
2019-05-16T03:58:30.779Z,6.62
2019-05-16T03:59:03.260Z,6.62
2019-05-16T03:59:36.155Z,6.62
2019-05-16T04:00:11.856Z,6.62
2019-05-16T04:00:54.374Z,6.62
2019-05-16T04:01:27.595Z,6.62
2019-05-16T04:02:01.454Z,6.62
2019-05-16T04:02:34.806Z,6.62
2019-05-16T04:03:07.768Z,6.62
2019-05-16T04:03:41.585Z,6.62
2019-05-16T04:04:15.030Z,6.62
2019-05-16T04:04:50.881Z,6.62
2019-05-16T04:05:23.134Z,6.62
2019-05-16T04:05:56.721Z,6.62
2019-05-16T04:06:31.162Z,6.62
2019-05-16T04:07:04.613Z,6.62
2019-05-16T04:07:41.407Z,6.62
2019-05-16T04:08:20.823Z,6.62
2019-05-16T04:08:51.188Z,6.62
2019-05-16T04:09:24.551Z,6.62
2019-05-16T04:09:57.606Z,6.62
2019-05-16T04:10:31.090Z,6.62
2019-05-16T04:11:04.264Z,6.62
2019-05-16T04:11:37.252Z,6.62
2019-05-16T04:12:10.907Z,6.69
2019-05-16T04:12:43.948Z,6.69
2019-05-16T04:13:16.976Z,6.69
2019-05-16T04:13:50.846Z,6.69
2019-05-16T04:14:23.978Z,6.69
2019-05-16T04:14:57.278Z,6.69
2019-05-16T04:15:31.394Z,6.69
2019-05-16T04:16:04.411Z,6.75
2019-05-16T04:16:37.575Z,6.75
2019-05-16T04:17:11.063Z,6.75
2019-05-16T04:17:44.105Z,6.69
2019-05-16T04:18:17.092Z,6.75
2019-05-16T04:18:51.471Z,6.69
2019-05-16T04:19:24.621Z,6.69
2019-05-16T04:19:57.566Z,6.69
2019-05-16T04:20:30.614Z,6.69
2019-05-16T04:21:03.672Z,6.69
2019-05-16T04:21:36.573Z,6.69
2019-05-16T04:22:14.307Z,6.69
2019-05-16T04:22:47.209Z,6.69
2019-05-16T04:23:20.668Z,6.62
2019-05-16T04:23:54.078Z,6.62
2019-05-16T04:24:31.430Z,6.62
2019-05-16T04:25:04.458Z,6.62
2019-05-16T04:25:40.779Z,6.62
2019-05-16T04:26:12.237Z,6.62
2019-05-16T04:26:45.351Z,6.62
2019-05-16T04:27:21.213Z,6.62
2019-05-16T04:27:53.160Z,6.62
2019-05-16T04:28:25.961Z,6.56
2019-05-16T04:29:00.849Z,6.62
2019-05-16T04:29:33.724Z,6.62
2019-05-16T04:30:06.978Z,6.62
2019-05-16T04:30:41.518Z,6.62
2019-05-16T04:31:14.804Z,6.62
2019-05-16T04:31:50.698Z,6.62
2019-05-16T04:32:22.517Z,6.62
2019-05-16T04:32:55.522Z,6.62
2019-05-16T04:33:30.948Z,6.62
2019-05-16T04:34:03.780Z,6.62
2019-05-16T04:34:37.478Z,6.62
2019-05-16T04:35:11.273Z,6.62
2019-05-16T04:35:45.165Z,6.62
2019-05-16T04:36:21.084Z,6.62
2019-05-16T04:36:54.586Z,6.62
2019-05-16T04:37:31.151Z,6.62
2019-05-16T04:38:02.513Z,6.62
2019-05-16T04:38:41.285Z,6.62
2019-05-16T04:39:11.905Z,6.62
2019-05-16T04:39:45.119Z,6.62
2019-05-16T04:40:21.632Z,6.62
2019-05-16T04:40:53.194Z,6.62
2019-05-16T04:41:27.134Z,6.62
2019-05-16T04:42:01.537Z,6.62
2019-05-16T04:42:34.853Z,6.62
2019-05-16T04:43:07.691Z,6.62
2019-05-16T04:43:41.592Z,6.62
2019-05-16T04:44:14.977Z,6.62
2019-05-16T04:44:51.282Z,6.62
2019-05-16T04:45:22.925Z,6.62
2019-05-16T04:45:56.018Z,6.62
2019-05-16T04:46:31.388Z,6.69
2019-05-16T04:47:04.097Z,6.69
2019-05-16T04:47:37.064Z,6.62
2019-05-16T04:48:11.254Z,6.69
2019-05-16T04:48:44.485Z,6.69
2019-05-16T04:49:17.504Z,6.69
2019-05-16T04:49:51.952Z,6.69
2019-05-16T04:50:25.240Z,6.69
2019-05-16T04:51:01.040Z,6.69
2019-05-16T04:51:33.216Z,6.69
2019-05-16T04:52:06.160Z,6.69
2019-05-16T04:52:41.862Z,6.69
2019-05-16T04:53:14.152Z,6.69
2019-05-16T04:53:47.059Z,6.69
2019-05-16T04:54:21.562Z,6.69
2019-05-16T04:54:54.662Z,6.69
2019-05-16T04:55:27.704Z,6.69
2019-05-16T04:56:01.755Z,6.69
2019-05-16T04:56:35.167Z,6.69
2019-05-16T04:57:11.561Z,6.69
2019-05-16T04:57:42.946Z,6.69
2019-05-16T04:58:15.912Z,6.69
2019-05-16T04:58:51.418Z,6.75
2019-05-16T04:59:23.892Z,6.75
2019-05-16T04:59:56.887Z,6.75
2019-05-16T05:00:32.067Z,6.75
2019-05-16T05:01:05.156Z,6.75
2019-05-16T05:01:41.056Z,6.75
2019-05-16T05:02:13.427Z,6.75
2019-05-16T05:02:46.505Z,6.81
2019-05-16T05:03:21.229Z,6.81
2019-05-16T05:04:07.940Z,6.81
2019-05-16T05:04:30.639Z,6.81
2019-05-16T05:05:04.277Z,6.87
2019-05-16T05:05:37.243Z,6.87
2019-05-16T05:06:11.346Z,6.87
2019-05-16T05:06:44.566Z,6.87
2019-05-16T05:07:20.777Z,6.94
2019-05-16T05:07:53.724Z,6.94
2019-05-16T05:08:26.823Z,6.94
2019-05-16T05:09:03.229Z,7.00
2019-05-16T05:09:34.944Z,7.00
2019-05-16T05:10:11.307Z,7.00
2019-05-16T05:10:43.683Z,7.06
2019-05-16T05:11:16.747Z,7.06
2019-05-16T05:11:52.037Z,7.12
2019-05-16T05:12:24.859Z,7.12
2019-05-16T05:12:57.829Z,7.19
2019-05-16T05:13:30.957Z,7.19
2019-05-16T05:14:04.161Z,7.25
2019-05-16T05:14:37.195Z,7.25
2019-05-16T05:15:11.731Z,7.31
2019-05-16T05:15:44.897Z,7.31
2019-05-16T05:16:20.330Z,7.37
2019-05-16T05:16:53.081Z,7.37
2019-05-16T05:17:26.021Z,7.44
2019-05-16T05:18:00.650Z,7.44
2019-05-16T05:18:33.882Z,7.50
2019-05-16T05:19:06.923Z,7.50
2019-05-16T05:19:41.457Z,7.50
2019-05-16T05:20:15.282Z,7.56
2019-05-16T05:20:48.374Z,7.56
2019-05-16T05:21:21.346Z,7.56
2019-05-16T05:21:54.408Z,7.62
2019-05-16T05:22:27.370Z,7.62
2019-05-16T05:23:00.524Z,7.62
2019-05-16T05:23:33.627Z,7.62
2019-05-16T05:24:06.632Z,7.62
2019-05-16T05:24:40.625Z,7.69
2019-05-16T05:25:14.258Z,7.69
2019-05-16T05:25:47.243Z,7.69
2019-05-16T05:26:20.427Z,7.69
2019-05-16T05:26:53.411Z,7.69
2019-05-16T05:27:26.272Z,7.69
2019-05-16T05:28:00.533Z,7.75
2019-05-16T05:28:34.704Z,7.75
2019-05-16T05:29:07.600Z,7.75
2019-05-16T05:29:40.547Z,7.75
2019-05-16T05:30:13.893Z,7.81
2019-05-16T05:30:46.878Z,7.81
2019-05-16T05:31:24.780Z,7.81
2019-05-16T05:31:55.843Z,7.81
2019-05-16T05:32:30.557Z,7.81
2019-05-16T05:33:03.786Z,7.81
2019-05-16T05:33:36.752Z,7.87
2019-05-16T05:34:10.587Z,7.87
2019-05-16T05:34:43.853Z,7.87
2019-05-16T05:35:17.150Z,7.94
2019-05-16T05:35:50.930Z,7.94
2019-05-16T05:36:24.160Z,8.00
2019-05-16T05:37:00.266Z,8.00
2019-05-16T05:37:43.967Z,8.00
2019-05-16T05:38:20.842Z,8.06
2019-05-16T05:39:07.950Z,8.13
2019-05-16T05:39:30.158Z,8.13
2019-05-16T05:40:05.700Z,8.19
2019-05-16T05:40:40.448Z,8.19
2019-05-16T05:41:13.611Z,8.25
2019-05-16T05:41:46.731Z,8.31
2019-05-16T05:42:20.036Z,8.31
2019-05-16T05:42:53.237Z,8.38
2019-05-16T05:43:26.283Z,8.44
2019-05-16T05:43:59.826Z,8.50
2019-05-16T05:44:33.177Z,8.50
2019-05-16T05:45:06.353Z,8.56
2019-05-16T05:45:40.144Z,8.63
2019-05-16T05:46:13.239Z,8.63
2019-05-16T05:46:46.073Z,8.69
2019-05-16T05:47:19.974Z,8.69
2019-05-16T05:47:53.413Z,8.75
2019-05-16T05:48:26.430Z,8.81
2019-05-16T05:48:59.826Z,8.81
2019-05-16T05:49:33.019Z,8.88
2019-05-16T05:50:07.581Z,8.88
2019-05-16T05:50:40.606Z,8.94
2019-05-16T05:51:13.568Z,8.94
2019-05-16T05:51:46.782Z,9.00
2019-05-16T05:52:20.761Z,9.00
2019-05-16T05:52:53.952Z,9.06
2019-05-16T05:53:26.951Z,9.13
2019-05-16T05:54:00.225Z,9.13
2019-05-16T05:54:33.519Z,9.19
2019-05-16T05:55:06.843Z,9.25
2019-05-16T05:55:40.490Z,9.25
2019-05-16T05:56:13.735Z,9.31
2019-05-16T05:56:50.089Z,9.31
2019-05-16T05:57:23.329Z,9.38
2019-05-16T05:57:56.532Z,9.44
2019-05-16T05:58:31.065Z,9.44
2019-05-16T05:59:04.253Z,9.50
2019-05-16T05:59:37.355Z,9.50
2019-05-16T06:00:10.718Z,9.56
2019-05-16T06:00:43.854Z,9.56
2019-05-16T06:01:16.903Z,9.63
2019-05-16T06:01:51.636Z,9.63
2019-05-16T06:02:24.836Z,9.63
2019-05-16T06:02:59.977Z,9.63
2019-05-16T06:03:33.298Z,9.69
2019-05-16T06:04:06.335Z,9.69
2019-05-16T06:04:39.636Z,9.69
2019-05-16T06:05:13.521Z,9.69
2019-05-16T06:05:46.730Z,9.75
2019-05-16T06:06:21.094Z,9.75
2019-05-16T06:06:54.409Z,9.75
2019-05-16T06:07:27.191Z,9.81
2019-05-16T06:08:00.380Z,9.81
2019-05-16T06:08:33.342Z,9.81
2019-05-16T06:09:06.427Z,9.88
2019-05-16T06:09:50.512Z,9.88
2019-05-16T06:10:14.545Z,9.88
2019-05-16T06:10:50.380Z,9.94
2019-05-16T06:11:24.094Z,9.94
2019-05-16T06:11:57.194Z,9.94
2019-05-16T06:12:30.525Z,9.94
2019-05-16T06:13:03.842Z,9.94
2019-05-16T06:13:36.909Z,9.94
2019-05-16T06:14:10.042Z,10.00
2019-05-16T06:14:42.881Z,10.00
2019-05-16T06:15:20.105Z,10.06
2019-05-16T06:15:52.840Z,10.06
2019-05-16T06:16:25.783Z,10.06
2019-05-16T06:17:00.422Z,10.13
2019-05-16T06:17:33.747Z,10.13
2019-05-16T06:18:06.829Z,10.06
2019-05-16T06:18:39.890Z,10.06
2019-05-16T06:19:12.980Z,10.06
2019-05-16T06:19:45.955Z,10.13
2019-05-16T06:20:20.298Z,10.13
2019-05-16T06:20:53.554Z,10.13
2019-05-16T06:21:26.578Z,10.13
2019-05-16T06:22:01.084Z,10.13
2019-05-16T06:22:34.647Z,10.13
2019-05-16T06:23:07.587Z,10.19
2019-05-16T06:23:40.603Z,10.19
2019-05-16T06:24:16.221Z,10.19
2019-05-16T06:24:50.444Z,10.19
2019-05-16T06:25:23.567Z,10.19
2019-05-16T06:25:56.635Z,10.25
2019-05-16T06:26:30.325Z,10.25
2019-05-16T06:27:04.585Z,10.31
2019-05-16T06:27:37.656Z,10.31
2019-05-16T06:28:10.694Z,10.31
2019-05-16T06:28:43.781Z,10.38
2019-05-16T06:29:16.844Z,10.44
2019-05-16T06:29:49.910Z,10.50
2019-05-16T06:30:23.077Z,10.50
2019-05-16T06:30:56.030Z,10.56
2019-05-16T06:31:31.260Z,10.56
2019-05-16T06:32:04.373Z,10.63
2019-05-16T06:32:39.466Z,10.63
2019-05-16T06:33:12.355Z,10.63
2019-05-16T06:33:45.378Z,10.63
2019-05-16T06:34:20.767Z,10.69
2019-05-16T06:34:53.434Z,10.69
2019-05-16T06:35:26.603Z,10.69
2019-05-16T06:36:00.266Z,10.75
2019-05-16T06:36:34.550Z,10.75
2019-05-16T06:37:09.693Z,10.75
2019-05-16T06:37:42.609Z,10.75
2019-05-16T06:38:15.680Z,10.75
2019-05-16T06:38:49.789Z,10.81
2019-05-16T06:39:22.950Z,10.81
2019-05-16T06:39:56.023Z,10.88
2019-05-16T06:40:29.511Z,10.81
2019-05-16T06:41:02.748Z,10.81
2019-05-16T06:41:35.975Z,10.81
2019-05-16T06:42:09.814Z,10.81
2019-05-16T06:42:42.792Z,10.81
2019-05-16T06:43:15.933Z,10.88
2019-05-16T06:43:50.753Z,10.88
2019-05-16T06:44:23.699Z,10.88
2019-05-16T06:44:56.579Z,10.94
2019-05-16T06:45:31.977Z,10.94
2019-05-16T06:46:04.487Z,10.94
2019-05-16T06:46:52.593Z,10.94
2019-05-16T06:47:19.633Z,10.94
2019-05-16T06:47:47.116Z,11.00
2019-05-16T06:48:21.230Z,11.00
2019-05-16T06:48:54.545Z,11.06
2019-05-16T06:49:27.446Z,11.06
2019-05-16T06:50:00.529Z,11.12
2019-05-16T06:50:33.477Z,11.19
2019-05-16T06:51:06.564Z,11.19
2019-05-16T06:51:39.813Z,11.19
2019-05-16T06:52:13.298Z,11.19
2019-05-16T06:52:46.185Z,11.19
2019-05-16T06:53:20.944Z,11.25
2019-05-16T06:53:55.168Z,11.25
2019-05-16T06:54:29.853Z,11.25
2019-05-16T06:55:04.057Z,11.31
2019-05-16T06:55:37.106Z,11.31
2019-05-16T06:56:10.596Z,11.31
2019-05-16T06:56:43.786Z,11.38
2019-05-16T06:57:16.810Z,11.38
2019-05-16T06:57:50.327Z,11.38
2019-05-16T06:58:23.581Z,11.44
2019-05-16T06:58:56.529Z,11.44
2019-05-16T06:59:29.832Z,11.44
2019-05-16T07:00:05.492Z,11.50
2019-05-16T07:00:40.626Z,11.50
2019-05-16T07:01:13.643Z,11.50
2019-05-16T07:01:46.755Z,11.50
2019-05-16T07:02:30.440Z,11.50
2019-05-16T07:02:54.848Z,11.44
2019-05-16T07:03:27.886Z,11.44
2019-05-16T07:04:00.919Z,11.44
2019-05-16T07:04:33.966Z,11.44
2019-05-16T07:05:07.172Z,11.44
2019-05-16T07:05:40.609Z,11.44
2019-05-16T07:06:29.613Z,11.44
2019-05-16T07:06:58.704Z,11.38
2019-05-16T07:07:24.595Z,11.44
2019-05-16T07:08:20.500Z,11.44
2019-05-16T07:08:54.019Z,11.44
2019-05-16T07:09:26.943Z,11.44
2019-05-16T07:10:04.154Z,11.50
2019-05-16T07:10:35.015Z,11.50
2019-05-16T07:11:10.376Z,11.50
2019-05-16T07:11:43.213Z,11.50
2019-05-16T07:12:16.338Z,11.50
2019-05-16T07:12:50.432Z,11.50
2019-05-16T07:13:23.600Z,11.56
2019-05-16T07:13:56.694Z,11.56
2019-05-16T07:14:31.383Z,11.56
2019-05-16T07:15:06.691Z,11.56
2019-05-16T07:15:40.174Z,11.56
2019-05-16T07:16:13.442Z,11.56
2019-05-16T07:16:46.518Z,11.56
2019-05-16T07:17:20.300Z,11.56
2019-05-16T07:17:53.425Z,11.56
2019-05-16T07:18:26.505Z,11.56
2019-05-16T07:19:00.842Z,11.56
2019-05-16T07:19:35.556Z,11.56
2019-05-16T07:20:10.556Z,11.63
2019-05-16T07:20:43.904Z,11.63
2019-05-16T07:21:20.074Z,11.63
2019-05-16T07:21:54.109Z,11.63
2019-05-16T07:22:27.110Z,11.63
2019-05-16T07:23:00.726Z,11.63
2019-05-16T07:23:33.951Z,11.63
2019-05-16T07:24:07.086Z,11.63
2019-05-16T07:24:40.178Z,11.63
2019-05-16T07:25:13.531Z,11.63
2019-05-16T07:25:46.603Z,11.63
2019-05-16T07:26:20.525Z,11.63
2019-05-16T07:26:53.861Z,11.63
2019-05-16T07:27:26.976Z,11.63
2019-05-16T07:28:00.720Z,11.63